createdAt,value
2023-04-19T00:02:18.692Z,102265.38
2023-04-19T00:04:48.553Z,102264.13
2023-04-19T00:07:18.623Z,102263.66
2023-04-19T00:09:46.961Z,102255.34
2023-04-19T00:12:15.235Z,102261.53
2023-04-19T00:14:43.406Z,102257.72
2023-04-19T00:17:12.493Z,102262.66
2023-04-19T00:19:41.208Z,102262.34
2023-04-19T00:22:10.813Z,102262.59
2023-04-19T00:24:38.972Z,102253.53
2023-04-19T00:27:07.200Z,102254.25
2023-04-19T00:29:35.528Z,102254.34
2023-04-19T00:32:05.885Z,102263.47
2023-04-19T00:34:34.099Z,102266.25
2023-04-19T00:37:04.540Z,102254.31
2023-04-19T00:39:34.369Z,102264.25
2023-04-19T00:42:02.589Z,102258.78
2023-04-19T00:44:30.920Z,102257.94
2023-04-19T00:46:59.174Z,102258.03
2023-04-19T00:49:27.881Z,102251.34
2023-04-19T00:51:56.080Z,102252.75
2023-04-19T00:54:25.996Z,102243.81
2023-04-19T00:56:55.603Z,102254.91
2023-04-19T00:59:25.271Z,102251.53
2023-04-19T01:01:53.512Z,102241.28
2023-04-19T01:04:23.085Z,102243.25
2023-04-19T01:06:52.240Z,102235.97
2023-04-19T01:09:20.481Z,102232.34
2023-04-19T01:11:48.628Z,102235.09
2023-04-19T01:14:18.167Z,102234.63
2023-04-19T01:16:46.564Z,102242.84
2023-04-19T01:19:14.810Z,102240.44
2023-04-19T01:21:43.858Z,102237.22
2023-04-19T01:24:13.717Z,102235.91
2023-04-19T01:26:42.145Z,102238.09
2023-04-19T01:29:10.368Z,102224.88
2023-04-19T01:31:38.596Z,102226.19
2023-04-19T01:34:06.835Z,102232.13
2023-04-19T01:36:34.999Z,102221.66
2023-04-19T01:39:03.548Z,102225.31
2023-04-19T01:41:33.060Z,102220.81
2023-04-19T01:44:01.656Z,102225.09
2023-04-19T01:46:29.836Z,102221.66
2023-04-19T01:48:58.011Z,102222.16
2023-04-19T01:51:26.224Z,102217.44
2023-04-19T01:53:54.840Z,102222.91
2023-04-19T02:00:31.056Z,102219.41
2023-04-19T02:02:59.496Z,102227.66
2023-04-19T02:05:27.815Z,102218.06
2023-04-19T02:07:56.098Z,102217.59
2023-04-19T02:10:24.616Z,102225.09
2023-04-19T02:12:52.806Z,102218.69
2023-04-19T02:15:21.064Z,102208.00
2023-04-19T02:17:50.735Z,102209.97
2023-04-19T02:20:19.236Z,102211.38
2023-04-19T02:22:47.953Z,102207.19
2023-04-19T02:25:16.829Z,102208.47
2023-04-19T02:27:45.235Z,102208.44
2023-04-19T02:30:14.451Z,102211.19
2023-04-19T02:32:42.727Z,102211.13
2023-04-19T02:35:14.231Z,102211.13
2023-04-19T02:37:42.913Z,102207.59
2023-04-19T02:40:11.785Z,102212.31
2023-04-19T02:42:40.023Z,102200.81
2023-04-19T02:45:10.348Z,102199.72
2023-04-19T02:47:38.671Z,102203.78
2023-04-19T02:50:08.557Z,102204.16
2023-04-19T02:52:38.144Z,102207.63
2023-04-19T02:55:07.958Z,102208.00
2023-04-19T02:57:36.217Z,102202.25
2023-04-19T03:00:06.521Z,102201.00
2023-04-19T03:02:34.868Z,102198.88
2023-04-19T03:05:04.048Z,102198.91
2023-04-19T03:07:32.281Z,102194.34
2023-04-19T03:10:01.916Z,102203.56
2023-04-19T03:12:30.156Z,102193.34
2023-04-19T03:14:58.445Z,102190.78
2023-04-19T03:17:26.712Z,102187.81
2023-04-19T03:19:55.261Z,102182.19
2023-04-19T03:22:23.477Z,102179.84
2023-04-19T03:24:51.751Z,102188.22
2023-04-19T03:27:21.428Z,102183.34
2023-04-19T03:29:49.708Z,102177.81
2023-04-19T03:32:17.985Z,102180.09
2023-04-19T03:34:46.273Z,102175.66
2023-04-19T03:37:14.545Z,102170.97
2023-04-19T03:39:42.835Z,102169.50
2023-04-19T03:42:11.073Z,102166.03
2023-04-19T03:44:40.741Z,102171.41
2023-04-19T03:47:09.056Z,102179.72
2023-04-19T03:49:37.375Z,102170.47
2023-04-19T03:52:06.215Z,102172.44
2023-04-19T03:54:34.534Z,102172.03
2023-04-19T03:57:02.805Z,102182.28
2023-04-19T03:59:31.071Z,102174.75
2023-04-19T04:02:00.772Z,102169.25
2023-04-19T04:04:29.381Z,102173.41
2023-04-19T04:06:57.836Z,102177.78
2023-04-19T04:09:26.200Z,102177.19
2023-04-19T04:11:54.422Z,102180.88
2023-04-19T04:14:22.687Z,102178.22
2023-04-19T04:16:51.011Z,102177.09
2023-04-19T04:19:21.991Z,102175.72
2023-04-19T04:21:50.387Z,102172.44
2023-04-19T04:24:20.212Z,102178.44
2023-04-19T04:26:49.849Z,102178.50
2023-04-19T04:29:18.192Z,102177.75
2023-04-19T04:31:46.526Z,102182.91
2023-04-19T04:34:15.205Z,102180.44
2023-04-19T04:36:44.916Z,102189.69
2023-04-19T04:39:13.220Z,102189.88
2023-04-19T04:41:42.413Z,102192.66
2023-04-19T04:44:23.318Z,102207.94
2023-04-19T04:46:51.768Z,102190.09
2023-04-19T04:49:20.052Z,102190.53
2023-04-19T04:51:49.706Z,102190.63
2023-04-19T04:54:18.132Z,102198.31
2023-04-19T04:56:46.392Z,102190.13
2023-04-19T04:59:14.762Z,102194.22
2023-04-19T05:01:43.156Z,102193.88
2023-04-19T05:04:11.584Z,102190.47
2023-04-19T05:06:40.945Z,102185.88
2023-04-19T05:09:10.615Z,102182.97
2023-04-19T05:11:39.075Z,102194.47
2023-04-19T05:14:07.320Z,102187.56
2023-04-19T05:16:35.743Z,102196.06
2023-04-19T05:19:04.057Z,102196.41
2023-04-19T05:21:34.126Z,102191.63
2023-04-19T05:24:03.009Z,102200.16
2023-04-19T05:26:33.115Z,102199.09
2023-04-19T05:29:01.327Z,102200.59
2023-04-19T05:31:29.952Z,102200.59
2023-04-19T05:33:58.218Z,102199.91
2023-04-19T05:36:27.002Z,102193.53
2023-04-19T05:38:55.275Z,102203.34
2023-04-19T05:41:23.768Z,102207.56
2023-04-19T05:43:53.354Z,102213.25
2023-04-19T05:46:21.666Z,102202.56
2023-04-19T05:48:49.928Z,102209.53
2023-04-19T05:51:18.989Z,102210.63
2023-04-19T05:53:47.343Z,102203.72
2023-04-19T05:56:15.634Z,102208.03
2023-04-19T05:58:43.842Z,102205.09
2023-04-19T06:01:13.917Z,102206.34
2023-04-19T06:03:42.683Z,102209.59
2023-04-19T06:06:11.386Z,102200.41
2023-04-19T06:08:39.916Z,102205.91
2023-04-19T06:11:20.177Z,102208.13
2023-04-19T06:13:55.038Z,102213.00
2023-04-19T06:16:26.946Z,102208.91
2023-04-19T06:18:55.255Z,102202.72
2023-04-19T06:21:23.600Z,102205.91
2023-04-19T06:23:51.813Z,102205.94
2023-04-19T06:26:20.086Z,102203.16
2023-04-19T06:28:48.314Z,102211.66
2023-04-19T06:31:16.729Z,102210.56
2023-04-19T06:33:46.424Z,102217.19
2023-04-19T06:36:14.728Z,102203.16
2023-04-19T06:38:44.613Z,102208.34
2023-04-19T06:41:13.012Z,102205.84
2023-04-19T06:43:42.774Z,102209.66
2023-04-19T06:46:11.529Z,102212.50
2023-04-19T06:48:39.877Z,102208.38
2023-04-19T06:51:09.976Z,102206.94
2023-04-19T06:53:38.772Z,102222.56
2023-04-19T06:56:08.175Z,102218.03
2023-04-19T06:58:36.625Z,102216.34
2023-04-19T07:01:06.787Z,102214.66
2023-04-19T07:03:35.515Z,102207.03
2023-04-19T07:06:03.932Z,102203.31
2023-04-19T07:08:46.368Z,102203.31
2023-04-19T07:11:17.428Z,102207.06
2023-04-19T07:13:45.686Z,102202.41
2023-04-19T07:16:14.939Z,102200.06
2023-04-19T07:18:43.996Z,102200.84
2023-04-19T07:21:12.311Z,102210.25
2023-04-19T07:23:41.952Z,102206.59
2023-04-19T07:26:10.243Z,102208.81
2023-04-19T07:28:40.168Z,102201.25
2023-04-19T07:31:08.504Z,102198.16
2023-04-19T07:33:36.791Z,102198.91
2023-04-19T07:36:06.583Z,102194.03
2023-04-19T07:38:35.110Z,102187.94
2023-04-19T07:41:05.306Z,102197.19
2023-04-19T07:43:34.302Z,102191.22
2023-04-19T07:46:02.957Z,102186.41
2023-04-19T07:48:31.242Z,102183.34
2023-04-19T07:51:08.735Z,102185.91
2023-04-19T07:53:36.977Z,102198.47
2023-04-19T07:56:08.137Z,102189.25
2023-04-19T07:58:36.927Z,102201.88
2023-04-19T08:01:05.342Z,102194.56
2023-04-19T08:03:36.315Z,102183.41
2023-04-19T08:06:07.484Z,102188.81
2023-04-19T08:08:35.871Z,102184.47
2023-04-19T08:11:04.255Z,102187.13
2023-04-19T08:13:33.992Z,102175.75
2023-04-19T08:16:39.938Z,102187.94
2023-04-19T08:18:52.562Z,102184.25
2023-04-19T08:21:24.050Z,102193.31
2023-04-19T08:23:57.029Z,102185.19
2023-04-19T08:26:25.564Z,102184.56
2023-04-19T08:28:55.124Z,102193.44
2023-04-19T08:31:23.453Z,102181.75
2023-04-19T08:33:52.068Z,102190.56
2023-04-19T08:36:32.510Z,102181.50
2023-04-19T08:39:29.157Z,102206.88
2023-04-19T08:42:06.997Z,102191.84
2023-04-19T08:44:49.272Z,102193.06
2023-04-19T08:47:32.156Z,102201.31
2023-04-19T08:52:47.977Z,102184.75
2023-04-19T08:55:23.236Z,102185.22
2023-04-19T08:57:51.852Z,102188.25
2023-04-19T09:00:22.994Z,102178.13
2023-04-19T09:02:54.661Z,102195.56
2023-04-19T09:05:23.846Z,102190.03
2023-04-19T09:07:52.497Z,102184.44
2023-04-19T09:10:22.560Z,102178.78
2023-04-19T09:13:05.175Z,102174.25
2023-04-19T09:15:44.660Z,102171.69
2023-04-19T09:18:14.188Z,102169.50
2023-04-19T09:20:45.092Z,102164.59
2023-04-19T09:23:15.072Z,102170.34
2023-04-19T09:26:19.204Z,102158.78
2023-04-19T09:28:56.424Z,102163.09
2023-04-19T09:31:43.423Z,102170.63
2023-04-19T09:34:18.021Z,102171.56
2023-04-19T09:36:47.180Z,102176.81
2023-04-19T09:39:16.101Z,102166.13
2023-04-19T09:41:53.680Z,102167.56
2023-04-19T09:44:53.065Z,102166.06
2023-04-19T09:47:26.346Z,102163.41
2023-04-19T09:50:21.800Z,102155.31
2023-04-19T09:52:53.344Z,102147.13
2023-04-19T09:55:27.580Z,102153.47
2023-04-19T09:57:57.640Z,102148.22
2023-04-19T10:00:28.276Z,102134.78
2023-04-19T10:03:00.674Z,102158.59
2023-04-19T10:05:29.429Z,102150.22
2023-04-19T10:08:00.285Z,102158.09
2023-04-19T10:15:50.216Z,102135.44
2023-04-19T10:18:22.630Z,102120.88
2023-04-19T10:20:56.560Z,102148.94
2023-04-19T10:23:25.946Z,102137.63
2023-04-19T10:25:59.256Z,102137.38
2023-04-19T10:28:30.971Z,102126.22
2023-04-19T10:31:02.741Z,102129.03
2023-04-19T10:33:36.845Z,102113.53
2023-04-19T10:36:09.453Z,102111.66
2023-04-19T10:38:39.862Z,102118.47
2023-04-19T10:41:17.123Z,102121.03
2023-04-19T10:43:48.185Z,102121.16
2023-04-19T10:46:18.462Z,102128.63
2023-04-19T10:48:54.766Z,102129.00
2023-04-19T10:51:25.151Z,102112.28
2023-04-19T10:54:01.609Z,102112.84
2023-04-19T10:56:59.617Z,102124.78
2023-04-19T10:59:30.333Z,102115.59
2023-04-19T11:02:01.103Z,102118.34
2023-04-19T11:05:04.264Z,102124.66
2023-04-19T11:07:40.913Z,102098.84
2023-04-19T11:10:13.196Z,102093.91
2023-04-19T11:12:45.929Z,102095.41
2023-04-19T11:15:14.493Z,102086.56
2023-04-19T11:17:42.864Z,102081.94
2023-04-19T11:20:14.713Z,102083.03
2023-04-19T11:22:46.280Z,102081.59
2023-04-19T11:25:16.686Z,102093.41
2023-04-19T11:27:46.721Z,102084.41
2023-04-19T11:30:16.787Z,102079.22
2023-04-19T11:32:49.890Z,102059.38
2023-04-19T11:35:22.877Z,102066.78
2023-04-19T11:37:51.861Z,102067.09
2023-04-19T11:40:21.517Z,102063.31
2023-04-19T11:42:55.518Z,102070.06
2023-04-19T11:45:31.645Z,102054.50
2023-04-19T11:48:02.591Z,102038.44
2023-04-19T11:50:40.486Z,102046.31
2023-04-19T11:53:14.145Z,102034.31
2023-04-19T11:55:45.518Z,102038.75
2023-04-19T11:58:29.660Z,102031.59
2023-04-19T12:01:00.920Z,102039.75
2023-04-19T12:03:29.812Z,102033.00
2023-04-19T12:06:03.399Z,102038.38
2023-04-19T12:08:33.923Z,102021.72
2023-04-19T12:11:03.491Z,102031.44
2023-04-19T12:13:32.823Z,102046.97
2023-04-19T12:16:01.692Z,102041.06
2023-04-19T12:18:44.483Z,102003.75
2023-04-19T12:21:29.454Z,102008.69
2023-04-19T12:23:59.028Z,102020.13
2023-04-19T12:26:29.329Z,102015.00
2023-04-19T12:28:58.399Z,102007.28
2023-04-19T12:31:27.221Z,102000.59
2023-04-19T12:33:55.964Z,102007.78
2023-04-19T12:36:25.945Z,101995.06
2023-04-19T12:38:54.510Z,101991.78
2023-04-19T12:41:23.019Z,102001.94
2023-04-19T12:43:51.556Z,101991.59
2023-04-19T12:46:19.855Z,101985.56
2023-04-19T12:48:48.442Z,101993.97
2023-04-19T12:51:17.949Z,102010.41
2023-04-19T12:53:52.331Z,101987.63
2023-04-19T12:56:21.604Z,101999.22
2023-04-19T12:58:50.666Z,101995.75
2023-04-19T13:01:19.565Z,101981.97
2023-04-19T13:03:50.453Z,101991.59
2023-04-19T13:06:19.403Z,101983.38
2023-04-19T13:08:48.355Z,101976.53
2023-04-19T13:11:25.675Z,101961.88
2023-04-19T13:13:55.943Z,101965.00
2023-04-19T13:16:25.466Z,101974.38
2023-04-19T13:18:55.198Z,101967.56
2023-04-19T13:21:27.614Z,101985.25
2023-04-19T13:23:56.685Z,101971.44
2023-04-19T13:26:26.975Z,101958.47
2023-04-19T13:28:56.754Z,101965.28
2023-04-19T13:31:28.114Z,101963.31
2023-04-19T13:33:58.653Z,101964.75
2023-04-19T13:36:28.514Z,101967.41
2023-04-19T13:38:57.584Z,101946.09
2023-04-19T13:41:28.294Z,101938.56
2023-04-19T13:43:58.184Z,101930.03
2023-04-19T13:46:26.881Z,101961.16
2023-04-19T13:48:58.583Z,101937.53
2023-04-19T13:51:38.739Z,101924.03
2023-04-19T13:54:18.239Z,101915.50
2023-04-19T13:56:52.096Z,101913.91
2023-04-19T13:59:21.308Z,101907.06
2023-04-19T14:01:51.184Z,101892.91
2023-04-19T14:04:20.297Z,101918.13
2023-04-19T14:06:49.957Z,101897.53
2023-04-19T14:09:19.013Z,101910.53
2023-04-19T14:11:49.847Z,101895.41
2023-04-19T14:14:19.012Z,101918.50
2023-04-19T14:16:49.128Z,101890.50
2023-04-19T14:19:17.796Z,101889.03
2023-04-19T14:21:46.341Z,101883.44
2023-04-19T14:24:16.173Z,101879.38
2023-04-19T14:26:45.067Z,101871.38
2023-04-19T14:29:15.271Z,101874.09
2023-04-19T14:31:44.459Z,101869.09
2023-04-19T14:34:13.693Z,101864.38
2023-04-19T14:36:45.020Z,101864.22
2023-04-19T14:39:14.453Z,101866.50
2023-04-19T14:41:44.424Z,101866.03
2023-04-19T14:44:14.711Z,101855.59
2023-04-19T14:46:43.394Z,101831.56
2023-04-19T14:49:11.675Z,101849.72
2023-04-19T14:51:39.878Z,101844.75
2023-04-19T14:54:08.113Z,101832.47
2023-04-19T14:56:38.380Z,101840.06
2023-04-19T14:59:08.057Z,101820.66
2023-04-19T15:01:38.115Z,101833.81
2023-04-19T15:04:07.028Z,101849.81
2023-04-19T15:06:35.617Z,101832.50
2023-04-19T15:09:03.963Z,101821.69
2023-04-19T15:11:32.216Z,101820.91
2023-04-19T15:14:00.422Z,101827.13
2023-04-19T15:16:28.818Z,101810.72
2023-04-19T15:18:58.841Z,101810.94
2023-04-19T15:21:28.281Z,101813.41
2023-04-19T15:23:56.523Z,101802.66
2023-04-19T15:26:24.827Z,101811.59
2023-04-19T15:28:53.116Z,101829.00
2023-04-19T15:31:21.425Z,101818.84
2023-04-19T15:33:49.742Z,101812.13
2023-04-19T15:36:19.498Z,101819.84
2023-04-19T15:38:47.777Z,101821.38
2023-04-19T15:41:16.040Z,101805.44
2023-04-19T15:43:44.284Z,101801.25
2023-04-19T15:46:14.075Z,101803.41
2023-04-19T15:48:43.102Z,101808.91
2023-04-19T15:51:12.740Z,101794.00
2023-04-19T15:53:42.472Z,101790.28
2023-04-19T15:56:11.559Z,101791.69
2023-04-19T15:58:39.840Z,101786.03
2023-04-19T16:01:12.710Z,101784.69
2023-04-19T16:03:41.330Z,101789.75
2023-04-19T16:06:10.610Z,101808.31
2023-04-19T16:08:38.994Z,101793.59
2023-04-19T16:11:08.700Z,101797.25
2023-04-19T16:13:37.256Z,101795.41
2023-04-19T16:16:06.137Z,101787.44
2023-04-19T16:18:34.468Z,101795.84
2023-04-19T16:21:03.197Z,101802.56
2023-04-19T16:23:31.817Z,101791.19
2023-04-19T16:26:00.387Z,101789.44
2023-04-19T16:28:30.357Z,101800.53
2023-04-19T16:30:59.223Z,101783.91
2023-04-19T16:33:27.831Z,101786.69
2023-04-19T16:35:56.561Z,101788.63
2023-04-19T16:38:25.219Z,101781.94
2023-04-19T16:40:54.870Z,101797.19
2023-04-19T16:43:23.731Z,101779.16
2023-04-19T16:45:53.708Z,101778.81
2023-04-19T16:48:22.266Z,101789.28
2023-04-19T16:50:51.291Z,101784.84
2023-04-19T16:53:19.840Z,101781.88
2023-04-19T16:55:48.382Z,101780.94
2023-04-19T16:58:17.000Z,101786.00
2023-04-19T17:00:45.646Z,101774.72
2023-04-19T17:03:15.786Z,101769.22
2023-04-19T17:05:44.425Z,101783.19
2023-04-19T17:08:12.954Z,101766.13
2023-04-19T17:10:41.509Z,101793.41
2023-04-19T17:13:10.060Z,101774.16
2023-04-19T17:15:39.326Z,101787.75
2023-04-19T17:18:08.061Z,101768.41
2023-04-19T17:20:37.994Z,101774.03
2023-04-19T17:23:06.257Z,101763.47
2023-04-19T17:25:34.519Z,101779.41
2023-04-19T17:28:02.797Z,101776.31
2023-04-19T17:30:31.309Z,101784.94
2023-04-19T17:33:00.090Z,101769.72
2023-04-19T17:35:28.672Z,101783.63
2023-04-19T17:37:58.390Z,101787.63
2023-04-19T17:40:29.124Z,101798.44
2023-04-19T17:42:58.060Z,101794.03
2023-04-19T17:45:26.569Z,101778.03
2023-04-19T17:47:56.316Z,101787.16
2023-04-19T17:50:26.431Z,101787.19
2023-04-19T17:52:55.608Z,101796.09
2023-04-19T17:55:26.492Z,101804.13
2023-04-19T17:57:55.055Z,101786.75
2023-04-19T18:00:23.832Z,101787.28
2023-04-19T18:02:52.553Z,101787.66
2023-04-19T18:05:21.297Z,101789.78
2023-04-19T18:07:49.855Z,101791.34
2023-04-19T18:10:18.409Z,101793.94
2023-04-19T18:12:48.005Z,101795.81
2023-04-19T18:15:16.598Z,101782.34
2023-04-19T18:17:45.276Z,101794.06
2023-04-19T18:20:14.276Z,101803.81
2023-04-19T18:22:42.748Z,101807.34
2023-04-19T18:25:12.010Z,101822.88
2023-04-19T18:27:40.615Z,101804.34
2023-04-19T18:30:11.593Z,101814.78
2023-04-19T18:32:40.262Z,101808.81
2023-04-19T18:35:10.100Z,101813.94
2023-04-19T18:37:38.434Z,101814.06
2023-04-19T18:40:08.349Z,101821.31
2023-04-19T18:42:36.899Z,101817.88
2023-04-19T18:45:06.588Z,101823.41
2023-04-19T18:47:36.754Z,101818.31
2023-04-19T18:50:06.606Z,101827.88
2023-04-19T18:52:36.483Z,101833.75
2023-04-19T18:55:06.280Z,101835.84
2023-04-19T18:57:35.603Z,101855.81
2023-04-19T19:00:06.527Z,101829.06
2023-04-19T19:02:37.361Z,101836.78
2023-04-19T19:05:08.404Z,101837.03
2023-04-19T19:07:38.011Z,101841.13
2023-04-19T19:12:40.807Z,101857.25
2023-04-19T19:15:10.644Z,101861.91
2023-04-19T19:17:40.767Z,101865.78
2023-04-19T19:20:10.986Z,101859.50
2023-04-19T19:22:40.182Z,101856.28
2023-04-19T19:25:09.468Z,101844.63
2023-04-19T19:27:37.797Z,101853.19
2023-04-19T19:30:07.937Z,101856.19
2023-04-19T19:32:36.596Z,101855.66
2023-04-19T19:35:08.740Z,101862.44
2023-04-19T19:37:37.658Z,101861.56
2023-04-19T19:40:10.773Z,101862.84
2023-04-19T19:42:40.585Z,101855.19
2023-04-19T19:45:11.085Z,101855.31
2023-04-19T19:47:45.434Z,101856.09
2023-04-19T19:52:47.546Z,101858.47
2023-04-19T19:55:16.021Z,101866.59
2023-04-19T20:00:39.996Z,101876.69
2023-04-19T20:03:06.483Z,101864.00
2023-04-19T20:05:36.769Z,101866.44
2023-04-19T20:08:11.617Z,101863.44
2023-04-19T20:10:43.376Z,101873.25
2023-04-19T20:13:13.293Z,101868.56
2023-04-19T20:15:42.056Z,101871.69
2023-04-19T20:18:10.334Z,101872.34
2023-04-19T20:20:40.090Z,101865.53
2023-04-19T20:23:08.347Z,101870.72
2023-04-19T20:25:38.580Z,101873.75
2023-04-19T20:28:06.972Z,101870.97
2023-04-19T20:30:35.328Z,101875.00
2023-04-19T20:33:03.632Z,101869.06
2023-04-19T20:35:34.532Z,101873.72
2023-04-19T20:38:04.181Z,101864.56
2023-04-19T20:40:33.166Z,101873.59
2023-04-19T20:43:01.486Z,101870.41
2023-04-19T20:45:30.016Z,101873.94
2023-04-19T20:47:58.592Z,101868.75
2023-04-19T20:50:27.249Z,101864.97
2023-04-19T20:52:56.651Z,101868.97
2023-04-19T20:55:26.774Z,101871.56
2023-04-19T20:57:54.993Z,101865.94
2023-04-19T21:00:23.483Z,101870.75
2023-04-19T21:02:51.950Z,101875.16
2023-04-19T21:05:20.502Z,101867.56
2023-04-19T21:07:48.786Z,101870.38
2023-04-19T21:10:17.398Z,101869.34
2023-04-19T21:12:47.019Z,101872.44
2023-04-19T21:15:15.339Z,101874.94
2023-04-19T21:17:43.785Z,101864.88
2023-04-19T21:20:14.561Z,101879.41
2023-04-19T21:22:44.875Z,101868.03
2023-04-19T21:25:14.387Z,101867.97
2023-04-19T21:27:43.392Z,101857.25
2023-04-19T21:30:15.410Z,101863.41
2023-04-19T21:32:43.741Z,101865.09
2023-04-19T21:35:12.139Z,101872.25
2023-04-19T21:37:40.529Z,101856.72
2023-04-19T21:40:09.910Z,101855.88
2023-04-19T21:42:38.337Z,101846.28
2023-04-19T21:45:08.477Z,101855.44
2023-04-19T21:47:38.112Z,101851.84
2023-04-19T21:50:07.940Z,101849.31
2023-04-19T21:52:36.264Z,101852.53
2023-04-19T21:55:05.069Z,101854.84
2023-04-19T21:57:33.710Z,101855.16
2023-04-19T22:00:02.059Z,101840.19
2023-04-19T22:02:30.417Z,101847.69
2023-04-19T22:05:01.071Z,101847.00
2023-04-19T22:07:30.995Z,101839.97
2023-04-19T22:10:01.369Z,101841.81
2023-04-19T22:12:29.668Z,101837.53
2023-04-19T22:14:57.985Z,101837.22
2023-04-19T22:17:26.324Z,101834.31
2023-04-19T22:19:55.212Z,101837.88
2023-04-19T22:22:24.828Z,101831.94
2023-04-19T22:24:57.948Z,101829.09
2023-04-19T22:27:26.678Z,101818.75
2023-04-19T22:29:55.019Z,101817.13
2023-04-19T22:32:23.511Z,101820.66
2023-04-19T22:34:51.887Z,101814.81
2023-04-19T22:37:20.180Z,101822.22
2023-04-19T22:39:49.828Z,101826.59
2023-04-19T22:42:18.158Z,101815.09
2023-04-19T22:44:46.471Z,101814.25
2023-04-19T22:47:15.180Z,101815.78
2023-04-19T22:49:43.675Z,101810.84
2023-04-19T22:52:12.758Z,101807.88
2023-04-19T22:54:41.671Z,101800.66
2023-04-19T22:57:11.998Z,101789.53
2023-04-19T22:59:40.391Z,101786.38
2023-04-19T23:02:08.834Z,101780.91
2023-04-19T23:04:38.079Z,101779.41
2023-04-19T23:07:07.046Z,101773.38
2023-04-19T23:09:38.999Z,101778.16
2023-04-19T23:12:08.300Z,101778.13
2023-04-19T23:14:39.022Z,101771.81
2023-04-19T23:17:07.335Z,101778.75
2023-04-19T23:19:37.652Z,101774.13
2023-04-19T23:22:06.364Z,101775.56
2023-04-19T23:24:36.151Z,101758.81
2023-04-19T23:27:04.602Z,101754.97
2023-04-19T23:29:32.891Z,101760.72
2023-04-19T23:32:03.777Z,101755.69
2023-04-19T23:34:32.397Z,101755.59
2023-04-19T23:37:01.147Z,101754.06
2023-04-19T23:39:29.666Z,101748.84
2023-04-19T23:41:58.212Z,101752.22
2023-04-19T23:44:27.065Z,101756.34
2023-04-19T23:46:55.735Z,101742.16
2023-04-19T23:49:25.738Z,101735.00
2023-04-19T23:51:54.280Z,101731.59
2023-04-19T23:54:25.808Z,101731.78
2023-04-19T23:56:54.937Z,101729.91
2023-04-19T23:59:26.732Z,101730.50
